Time;durP1;ratioP1;P1;durP2;ratioP2;P2;SDS_P1;SDS_P2;PMS_P1;PMS_P2;Temp;Humidity;BMP_temperature;BMP_pressure;BME280_temperature;BME280_humidity;BME280_pressure;Samples;Min_cycle;Max_cycle;Signal;HPM_P1;HPM_P2
2023/02/22 00:00:44;;;;;;;8.70;6.10;;;;;;;6.97;60.90;96604.41;5052768;28;20052;-77
2023/02/22 00:03:14;;;;;;;7.50;5.57;;;;;;;6.93;60.93;96601.31;5053100;28;20063;-77
2023/02/22 00:05:45;;;;;;;6.45;5.53;;;;;;;6.93;61.34;96598.72;5052443;28;20147;-77
2023/02/22 00:08:14;;;;;;;6.47;5.05;;;;;;;7.01;61.70;96603.91;5051955;28;20053;-77
2023/02/22 00:10:42;;;;;;;7.82;4.93;;;;;;;7.08;60.95;96592.91;5052243;28;20086;-77
2023/02/22 00:13:13;;;;;;;8.05;4.43;;;;;;;7.08;60.39;96593.72;5052422;28;20059;-77
2023/02/22 00:15:43;;;;;;;8.23;5.38;;;;;;;7.00;60.35;96599.72;5052157;28;20529;-77
2023/02/22 00:18:13;;;;;;;8.00;5.63;;;;;;;6.96;61.58;96595.00;5051595;28;20056;-77
2023/02/22 00:20:41;;;;;;;6.95;4.32;;;;;;;6.95;60.75;96599.38;5052386;28;20144;-77
2023/02/22 00:23:13;;;;;;;9.30;6.32;;;;;;;6.93;60.78;96596.13;5052555;28;20491;-77
2023/02/22 00:25:40;;;;;;;6.05;4.30;;;;;;;6.94;60.69;96587.38;5052498;28;20048;-77
2023/02/22 00:28:08;;;;;;;4.47;3.42;;;;;;;6.94;60.57;96587.38;5051535;28;20503;-77
2023/02/22 00:30:35;;;;;;;5.90;3.85;;;;;;;6.98;60.92;96583.50;5052226;28;20045;-77
2023/02/22 00:33:05;;;;;;;5.88;4.15;;;;;;;6.99;61.00;96585.09;5052493;28;20106;-77
2023/02/22 00:35:32;;;;;;;7.43;5.00;;;;;;;6.98;60.82;96587.88;5052046;28;20045;-77
2023/02/22 00:38:01;;;;;;;4.20;3.42;;;;;;;6.94;61.15;96582.19;5051441;28;20062;-77
2023/02/22 00:40:31;;;;;;;5.32;4.18;;;;;;;6.97;61.17;96581.06;5052182;28;20128;-76
2023/02/22 00:42:59;;;;;;;7.90;5.05;;;;;;;6.99;60.67;96574.72;5052107;28;20049;-77
2023/02/22 00:45:28;;;;;;;11.68;5.85;;;;;;;6.93;61.11;96575.41;5052065;28;20499;-77
2023/02/22 00:47:56;;;;;;;9.07;5.85;;;;;;;6.88;60.98;96575.03;5051343;28;20483;-77
2023/02/22 00:50:28;;;;;;;11.05;5.70;;;;;;;6.83;61.19;96574.72;5052057;28;20053;-77
2023/02/22 00:52:56;;;;;;;15.45;5.65;;;;;;;6.76;61.48;96573.75;5052045;28;20060;-77
2023/02/22 00:55:26;;;;;;;9.93;6.20;;;;;;;6.72;61.56;96575.03;5051953;28;20045;-77
2023/02/22 00:57:54;;;;;;;6.80;4.28;;;;;;;6.72;61.96;96569.84;5050907;28;20061;-77
2023/02/22 01:00:24;;;;;;;8.80;5.43;;;;;;;6.70;61.73;96564.00;5051997;28;20135;-77
2023/02/22 01:02:52;;;;;;;8.25;5.78;;;;;;;6.68;61.81;96561.56;5051925;28;20057;-77
2023/02/22 01:05:26;;;;;;;9.68;5.97;;;;;;;6.70;62.06;96564.00;5051644;28;20538;-77
2023/02/22 01:07:56;;;;;;;8.88;6.28;;;;;;;6.68;62.06;96558.97;5051335;28;20049;-76
2023/02/22 01:10:26;;;;;;;11.00;7.05;;;;;;;6.65;62.34;96566.22;5051735;28;20055;-77
2023/02/22 01:12:54;;;;;;;10.10;7.03;;;;;;;6.62;62.39;96557.00;5055101;28;20059;-77
2023/02/22 01:15:23;;;;;;;8.95;6.32;;;;;;;6.67;62.31;96557.34;5055480;28;20052;-77
2023/02/22 01:17:52;;;;;;;10.15;6.60;;;;;;;6.68;61.65;96555.56;5054960;28;20378;-77
2023/02/22 01:20:22;;;;;;;11.13;7.38;;;;;;;6.58;62.05;96551.34;5055854;28;20061;-77
2023/02/22 01:22:53;;;;;;;14.32;7.55;;;;;;;6.52;62.07;96551.16;5055481;28;20049;-77
2023/02/22 01:25:24;;;;;;;8.65;6.40;;;;;;;6.55;64.06;96550.81;5055592;28;20429;-77
2023/02/22 01:27:53;;;;;;;11.32;7.82;;;;;;;6.59;62.42;96547.75;5054629;28;20049;-77
2023/02/22 01:30:22;;;;;;;14.10;7.55;;;;;;;6.55;62.16;96541.25;5055573;28;20059;-77
2023/02/22 01:32:51;;;;;;;12.82;7.20;;;;;;;6.53;62.11;96537.22;5054905;28;20126;-77
2023/02/22 01:35:22;;;;;;;10.23;6.95;;;;;;;6.47;62.42;96549.03;5054491;28;20052;-77
2023/02/22 01:37:50;;;;;;;11.52;6.75;;;;;;;6.45;62.43;96543.19;5054788;28;20052;-76
2023/02/22 01:40:20;;;;;;;8.90;6.72;;;;;;;6.43;62.22;96545.13;5054522;28;20124;-77
2023/02/22 01:42:52;;;;;;;10.85;6.93;;;;;;;6.39;62.34;96546.41;5054128;28;20049;-77
2023/02/22 01:45:43;;;;;;;8.27;6.20;;;;;;;6.39;62.68;96539.44;5054551;28;20514;-77
2023/02/22 01:48:14;;;;;;;8.73;6.85;;;;;;;6.44;62.29;96541.56;5053887;28;20056;-77
2023/02/22 01:50:44;;;;;;;7.20;6.07;;;;;;;6.45;62.21;96545.78;5054036;28;20049;-77
2023/02/22 01:53:16;;;;;;;11.90;7.47;;;;;;;6.38;61.78;96543.00;5054459;28;20139;-77
2023/02/22 01:55:45;;;;;;;11.68;6.40;;;;;;;6.33;63.08;96547.03;5054727;28;20056;-77
2023/02/22 01:58:16;;;;;;;12.38;7.10;;;;;;;6.35;62.66;96545.09;5054055;28;20057;-77
2023/02/22 02:00:44;;;;;;;13.32;6.97;;;;;;;6.41;62.87;96544.47;5055019;28;20053;-77
2023/02/22 02:03:16;;;;;;;14.38;8.07;;;;;;;6.46;61.87;96544.81;5055002;28;20203;-77
2023/02/22 02:05:44;;;;;;;11.27;7.32;;;;;;;6.42;61.76;96540.91;5054952;28;20053;-77
2023/02/22 02:08:21;;;;;;;10.57;7.60;;;;;;;6.31;61.76;96528.22;5054220;28;20123;-77
2023/02/22 02:10:49;;;;;;;9.50;6.85;;;;;;;6.24;61.64;96524.66;5054390;28;20044;-77
2023/02/22 02:13:18;;;;;;;12.02;7.35;;;;;;;6.19;61.87;96538.88;5054803;28;20099;-77
2023/02/22 02:15:48;;;;;;;9.82;6.40;;;;;;;6.13;61.97;96528.34;5054661;28;20071;-77
2023/02/22 02:18:16;;;;;;;10.88;6.97;;;;;;;6.09;62.17;96525.22;5054166;28;20057;-77
2023/02/22 02:20:54;;;;;;;7.55;6.40;;;;;;;6.08;62.74;96526.22;5054425;28;20056;-77
2023/02/22 02:23:45;;;;;;;9.70;7.03;;;;;;;6.10;63.03;96523.44;5053189;28;20057;-77
2023/02/22 02:26:44;;;;;;;11.18;6.30;;;;;;;6.04;63.13;96518.91;5054477;28;20052;-77
2023/02/22 02:29:41;;;;;;;9.07;6.13;;;;;;;6.04;64.38;96522.31;5053704;28;20045;-77
2023/02/22 02:32:27;;;;;;;14.02;6.93;;;;;;;6.03;62.55;96522.44;5051520;28;20052;-78
2023/02/22 02:35:03;;;;;;;9.15;6.25;;;;;;;5.97;62.42;96510.97;5070398;28;20049;-77
2023/02/22 02:37:36;;;;;;;10.48;6.55;;;;;;;5.94;62.52;96512.06;5062217;28;20067;-77
2023/02/22 02:40:11;;;;;;;11.85;6.18;;;;;;;5.90;62.52;96510.72;5054276;28;20063;-77
2023/02/22 02:42:43;;;;;;;12.00;7.10;;;;;;;5.89;62.35;96496.16;5054570;28;20048;-77
2023/02/22 02:45:18;;;;;;;8.05;6.50;;;;;;;5.90;63.37;96502.97;5054307;28;20441;-77
2023/02/22 02:47:51;;;;;;;10.93;7.85;;;;;;;5.86;62.77;96499.06;5054004;28;20431;-77
2023/02/22 02:50:21;;;;;;;;;;;;;;;5.84;62.95;96495.81;5054805;28;20049;-77
2023/02/22 02:52:52;;;;;;;14.38;7.28;;;;;;;5.78;62.20;96491.25;5054340;28;20571;-77
2023/02/22 02:55:20;;;;;;;14.98;7.55;;;;;;;5.72;62.26;96481.50;5054040;28;20136;-77
2023/02/22 02:57:47;;;;;;;12.52;7.25;;;;;;;5.71;62.38;96483.28;5053335;28;20043;-77
2023/02/22 03:00:22;;;;;;;11.20;7.55;;;;;;;5.68;62.63;96480.19;5054074;28;20063;-77
2023/02/22 03:03:07;;;;;;;11.18;7.50;;;;;;;5.61;63.11;96479.19;5053848;28;20513;-77
2023/02/22 03:05:52;;;;;;;15.57;7.28;;;;;;;5.55;63.64;96471.09;5053990;28;20053;-77
2023/02/22 03:08:30;;;;;;;11.70;7.25;;;;;;;5.55;64.18;96465.91;5053045;28;20049;-77
2023/02/22 03:11:05;;;;;;;12.35;6.25;;;;;;;5.61;63.58;96472.22;5053694;28;20052;-77
2023/02/22 03:13:40;;;;;;;11.23;7.28;;;;;;;5.68;64.67;96467.25;5053978;28;20053;-76
2023/02/22 03:16:18;;;;;;;10.73;7.25;;;;;;;5.70;63.52;96455.75;5053809;28;20143;-76
2023/02/22 03:18:53;;;;;;;10.30;6.55;;;;;;;5.67;63.21;96458.69;5052840;28;20140;-77
2023/02/22 03:21:26;;;;;;;18.55;6.38;;;;;;;5.62;63.17;96455.75;5053737;28;20070;-77
2023/02/22 03:24:02;;;;;;;9.05;6.53;;;;;;;5.63;64.37;96456.56;5053841;28;20059;-76
2023/02/22 03:26:36;;;;;;;8.15;5.60;;;;;;;5.71;64.33;96454.81;5053490;28;20123;-76
2023/02/22 03:29:06;;;;;;;9.20;6.85;;;;;;;5.71;63.45;96454.81;5052921;28;20113;-77
2023/02/22 03:31:38;;;;;;;8.95;5.93;;;;;;;5.70;63.24;96449.78;5053395;28;20049;-77
2023/02/22 03:34:11;;;;;;;8.80;6.47;;;;;;;5.69;62.89;96441.22;5074932;22;20139;-83
2023/02/22 03:36:44;;;;;;;6.78;5.70;;;;;;;5.68;63.26;96439.59;5085673;28;20470;-86
2023/02/22 03:39:16;;;;;;;7.97;6.05;;;;;;;5.68;63.83;96444.75;5084896;28;20103;-87
2023/02/22 03:41:50;;;;;;;10.05;6.18;;;;;;;5.67;63.61;96443.16;5085315;28;20076;-85
2023/02/22 03:44:23;;;;;;;9.40;5.70;;;;;;;5.68;63.92;96437.00;5088432;28;20040;-81
2023/02/22 03:46:55;;;;;;;9.07;6.40;;;;;;;5.70;63.55;96440.25;5105895;28;20048;-86
2023/02/22 03:49:33;;;;;;;8.77;5.53;;;;;;;5.66;63.84;96435.53;5105729;28;20056;-86
2023/02/22 03:52:02;;;;;;;8.45;5.30;;;;;;;5.68;63.78;96437.00;5105586;28;20047;-86
2023/02/22 03:54:31;;;;;;;8.13;5.47;;;;;;;5.75;63.70;96435.44;5105266;28;20058;-84
2023/02/22 03:57:06;;;;;;;13.73;6.43;;;;;;;5.73;63.81;96437.38;5106410;28;20068;-86
2023/02/22 03:59:34;;;;;;;11.23;6.30;;;;;;;5.75;63.55;96432.84;5105310;28;20058;-86
2023/02/22 04:02:02;;;;;;;9.70;5.82;;;;;;;5.74;63.49;96436.38;5105851;28;20130;-85
2023/02/22 04:04:31;;;;;;;10.07;5.18;;;;;;;5.72;63.78;96438.31;5104788;28;20120;-85
2023/02/22 04:06:58;;;;;;;6.18;4.75;;;;;;;5.80;65.32;96434.16;5104822;28;20490;-88
2023/02/22 04:09:26;;;;;;;8.45;5.15;;;;;;;5.83;64.30;96434.63;5104966;28;20048;-87
2023/02/22 04:11:54;;;;;;;12.48;6.28;;;;;;;5.85;64.27;96430.13;5106254;28;20513;-87
2023/02/22 04:14:21;;;;;;;9.40;5.70;;;;;;;5.87;63.94;96432.56;5105519;28;20044;-87
2023/02/22 04:16:50;;;;;;;7.50;5.22;;;;;;;5.93;64.69;96434.53;5105030;28;20059;-84
2023/02/22 04:19:18;;;;;;;9.13;5.40;;;;;;;6.04;64.65;96436.84;5104104;28;20151;-84
2023/02/22 04:21:47;;;;;;;7.13;4.68;;;;;;;6.13;64.67;96435.09;5104798;28;20524;-87
2023/02/22 04:24:14;;;;;;;6.70;5.32;;;;;;;6.21;64.72;96432.53;5103188;28;20139;-83
2023/02/22 04:26:42;;;;;;;11.27;6.13;;;;;;;6.28;64.26;96428.34;5103469;28;20112;-85
2023/02/22 04:29:10;;;;;;;12.57;4.78;;;;;;;6.36;65.71;96430.13;5102442;28;20455;-82
2023/02/22 04:31:38;;;;;;;8.32;4.75;;;;;;;6.49;66.17;96437.44;5105226;28;20083;-85
2023/02/22 04:34:05;;;;;;;5.85;3.90;;;;;;;6.67;66.15;96432.09;5103238;28;20048;-87
2023/02/22 04:36:33;;;;;;;5.07;4.05;;;;;;;6.79;66.75;96429.03;5103586;28;20104;-85
2023/02/22 04:39:02;;;;;;;6.78;4.60;;;;;;;6.92;66.91;96432.94;5103154;28;20044;-88
2023/02/22 04:41:31;;;;;;;7.18;4.75;;;;;;;7.00;66.53;96428.53;5104842;28;20040;-85
2023/02/22 04:43:58;;;;;;;6.70;3.92;;;;;;;7.07;66.72;96431.28;5104840;28;20063;-85
2023/02/22 04:46:26;;;;;;;9.23;4.18;;;;;;;7.13;66.90;96427.25;5105627;28;20142;-87
2023/02/22 04:48:54;;;;;;;8.07;3.95;;;;;;;7.20;66.56;96423.81;5107932;28;20044;-84
2023/02/22 04:51:21;;;;;;;9.35;4.93;;;;;;;7.29;66.88;96423.81;5107996;28;20051;-85
2023/02/22 04:53:49;;;;;;;6.57;4.18;;;;;;;7.33;66.72;96423.31;5108254;28;20051;-83
2023/02/22 04:56:18;;;;;;;11.98;5.45;;;;;;;7.39;66.78;96417.47;5108175;28;20486;-85
2023/02/22 04:58:46;;;;;;;7.63;5.15;;;;;;;7.46;66.53;96420.19;5107705;28;20108;-87
2023/02/22 05:01:15;;;;;;;7.43;4.97;;;;;;;7.51;66.52;96417.09;5107459;28;20060;-85
2023/02/22 05:03:43;;;;;;;7.88;4.10;;;;;;;7.55;66.47;96421.00;5107332;28;20059;-88
2023/02/22 05:06:11;;;;;;;8.50;5.40;;;;;;;7.57;66.33;96419.03;5109913;28;20052;-85
2023/02/22 05:08:39;;;;;;;9.85;4.72;;;;;;;7.57;66.33;96416.44;5109707;28;20489;-86
2023/02/22 05:11:07;;;;;;;8.95;5.10;;;;;;;7.60;66.47;96416.91;5109861;28;20052;-84
2023/02/22 05:13:36;;;;;;;10.13;5.20;;;;;;;7.63;66.63;96415.75;5109613;28;20094;-87
2023/02/22 05:16:04;;;;;;;11.88;5.75;;;;;;;7.69;66.51;96409.09;5108598;28;20044;-85
2023/02/22 05:18:31;;;;;;;7.30;5.18;;;;;;;7.74;66.04;96414.56;5107385;28;20044;-82
2023/02/22 05:20:59;;;;;;;11.57;5.40;;;;;;;7.77;66.16;96409.88;5107039;28;20079;-83
2023/02/22 05:23:27;;;;;;;10.73;5.78;;;;;;;7.80;65.96;96406.91;5105993;28;20068;-85
2023/02/22 05:25:54;;;;;;;8.57;6.10;;;;;;;7.83;66.05;96406.59;5085390;28;20044;-85
2023/02/22 05:28:22;;;;;;;13.07;6.53;;;;;;;7.84;66.02;96397.81;5083993;28;20045;-84
2023/02/22 05:30:51;;;;;;;9.27;5.93;;;;;;;7.87;65.88;96398.47;5084706;28;20071;-83
2023/02/22 05:33:19;;;;;;;9.80;6.35;;;;;;;7.90;65.95;96405.94;5102603;28;20443;-86
2023/02/22 05:35:47;;;;;;;10.40;6.80;;;;;;;7.91;65.84;96391.94;5101616;28;20712;-84
2023/02/22 05:38:15;;;;;;;9.20;6.40;;;;;;;7.92;65.82;96403.97;5104030;28;20072;-80
2023/02/22 05:40:43;;;;;;;7.50;6.18;;;;;;;7.96;65.93;96400.03;5103825;28;20070;-82
2023/02/22 05:43:11;;;;;;;11.70;6.25;;;;;;;8.01;65.53;96402.94;5092020;28;20041;-82
2023/02/22 05:45:38;;;;;;;10.07;6.18;;;;;;;8.02;65.44;96400.19;5084491;28;20112;-80
2023/02/22 05:48:07;;;;;;;10.93;6.75;;;;;;;8.05;65.63;96399.03;5084726;28;20054;-78
2023/02/22 05:50:35;;;;;;;8.63;6.15;;;;;;;8.10;65.39;96398.53;5098709;28;20048;-82
2023/02/22 05:53:04;;;;;;;11.27;6.32;;;;;;;8.13;64.91;96390.38;5104522;28;20054;-82
2023/02/22 05:55:32;;;;;;;8.93;6.20;;;;;;;8.12;65.07;96399.97;5100406;28;20176;-81
2023/02/22 05:58:00;;;;;;;15.95;6.95;;;;;;;8.13;64.99;96391.19;5092883;28;20578;-82
2023/02/22 06:00:30;;;;;;;10.18;6.95;;;;;;;8.14;65.31;96387.63;5104734;28;20056;-81
2023/02/22 06:02:59;;;;;;;12.23;6.45;;;;;;;8.16;64.79;96390.84;5107502;28;20054;-82
2023/02/22 06:05:28;;;;;;;9.85;7.00;;;;;;;8.20;64.86;96397.31;5093437;28;20044;-81
2023/02/22 06:07:57;;;;;;;11.43;7.13;;;;;;;8.22;64.49;96390.16;5106373;28;20043;-79
2023/02/22 06:10:25;;;;;;;12.88;7.57;;;;;;;8.27;64.80;96386.25;5104813;28;20111;-81
2023/02/22 06:12:54;;;;;;;13.20;8.20;;;;;;;8.27;64.68;96387.06;5104303;28;20107;-81
2023/02/22 06:15:24;;;;;;;12.55;7.85;;;;;;;8.30;64.67;96385.91;5108580;28;20477;-80
2023/02/22 06:17:52;;;;;;;12.88;8.68;;;;;;;8.32;64.43;96386.53;5093661;28;20514;-86
2023/02/22 06:20:22;;;;;;;10.57;7.15;;;;;;;8.31;64.47;96383.13;5092440;28;20053;-83
2023/02/22 06:22:54;;;;;;;16.58;8.23;;;;;;;8.32;64.61;96386.53;5083976;28;20052;-80
2023/02/22 06:25:24;;;;;;;10.88;6.78;;;;;;;8.31;64.65;96385.72;5077420;28;20104;-82
2023/02/22 06:27:52;;;;;;;11.88;7.30;;;;;;;8.33;64.47;96380.34;5082747;28;20125;-80
2023/02/22 06:30:22;;;;;;;13.50;7.90;;;;;;;8.34;64.20;96384.56;5083603;28;20127;-80
2023/02/22 06:32:50;;;;;;;13.85;8.25;;;;;;;8.37;64.28;96386.81;5083658;28;20135;-82
2023/02/22 06:35:18;;;;;;;12.65;8.32;;;;;;;8.40;64.01;96384.72;5083918;28;20054;-79
2023/02/22 06:37:46;;;;;;;11.07;7.15;;;;;;;8.44;64.03;96388.59;5083887;28;20086;-82
2023/02/22 06:40:16;;;;;;;12.70;8.10;;;;;;;8.44;63.95;96383.41;5085281;28;20114;-82
2023/02/22 06:42:44;;;;;;;10.43;7.88;;;;;;;8.48;64.00;96388.22;5085333;28;20080;-80
2023/02/22 06:45:11;;;;;;;16.55;10.20;;;;;;;8.51;63.93;96390.50;5085205;28;20049;-80
2023/02/22 06:47:40;;;;;;;14.90;10.48;;;;;;;8.52;63.77;96386.91;5084168;28;20076;-80
2023/02/22 06:50:17;;;;;;;13.68;8.73;;;;;;;8.52;63.53;96395.50;5082773;28;20442;-79
2023/02/22 06:52:46;;;;;;;11.38;8.05;;;;;;;8.54;63.52;96388.34;5077074;28;20052;-82
2023/02/22 06:55:19;;;;;;;14.18;8.40;;;;;;;8.57;63.01;96395.81;5078050;28;20052;-79
2023/02/22 06:57:47;;;;;;;13.40;8.63;;;;;;;8.59;63.09;96393.84;5077513;28;20051;-82
2023/02/22 07:00:17;;;;;;;12.27;8.85;;;;;;;8.65;62.58;96400.13;5076616;28;20421;-79
2023/02/22 07:02:45;;;;;;;10.98;7.53;;;;;;;8.73;62.30;96400.06;5076917;28;20059;-81
2023/02/22 07:05:13;;;;;;;16.33;7.68;;;;;;;8.81;62.14;96404.38;5076875;28;20044;-79
2023/02/22 07:07:40;;;;;;;10.70;8.18;;;;;;;8.90;62.00;96412.94;5077939;28;20052;-80
2023/02/22 07:10:15;;;;;;;13.48;8.00;;;;;;;8.99;61.92;96406.69;5079090;28;20083;-78
2023/02/22 07:12:44;;;;;;;10.13;7.32;;;;;;;9.08;61.17;96406.44;5079978;28;20490;-79
2023/02/22 07:15:12;;;;;;;9.48;7.80;;;;;;;9.14;60.98;96404.94;5081432;28;20562;-83
2023/02/22 07:17:40;;;;;;;13.02;8.77;;;;;;;9.21;60.96;96402.44;5079257;28;20084;-79
2023/02/22 07:20:10;;;;;;;12.60;8.13;;;;;;;9.31;60.77;96409.97;5084306;28;20045;-80
2023/02/22 07:22:38;;;;;;;9.88;8.18;;;;;;;9.40;60.53;96411.50;5085075;28;20123;-82
2023/02/22 07:25:08;;;;;;;12.43;8.80;;;;;;;9.51;60.39;96411.06;5085394;28;20044;-81
2023/02/22 07:27:36;;;;;;;11.18;8.57;;;;;;;9.65;59.81;96407.63;5077163;28;20079;-79
2023/02/22 07:30:08;;;;;;;12.85;8.75;;;;;;;9.79;59.45;96407.81;5076517;28;20048;-80
2023/02/22 07:32:35;;;;;;;13.03;8.67;;;;;;;9.99;59.17;96402.84;5076729;28;20048;-79
2023/02/22 07:35:03;;;;;;;12.00;8.52;;;;;;;10.46;58.14;96399.78;5076152;28;20331;-80
2023/02/22 07:37:31;;;;;;;12.18;8.60;;;;;;;11.22;55.80;96399.22;5076542;28;20074;-79
2023/02/22 07:39:58;;;;;;;10.35;8.80;;;;;;;11.47;55.00;96401.38;5075740;28;20413;-79
2023/02/22 07:42:26;;;;;;;13.77;9.48;;;;;;;11.95;53.74;96402.22;5076783;28;20487;-79
2023/02/22 07:44:53;;;;;;;16.20;10.05;;;;;;;12.42;52.31;96404.19;5077830;28;20435;-82
2023/02/22 07:47:22;;;;;;;15.40;10.23;;;;;;;12.55;51.71;96405.03;5078065;28;20059;-79
2023/02/22 07:49:50;;;;;;;16.33;9.52;;;;;;;12.98;50.97;96407.28;5077934;28;20049;-79
2023/02/22 07:52:17;;;;;;;16.05;9.90;;;;;;;13.32;49.63;96407.31;5081555;28;20524;-79
2023/02/22 07:54:46;;;;;;;13.55;9.38;;;;;;;13.12;49.67;96413.34;5082973;28;20052;-79
2023/02/22 07:57:13;;;;;;;11.95;9.15;;;;;;;12.94;50.46;96400.84;5078960;28;20414;-79
2023/02/22 07:59:41;;;;;;;13.98;8.80;;;;;;;13.05;50.14;96404.66;5078395;28;20052;-79
2023/02/22 08:02:15;;;;;;;11.65;8.13;;;;;;;13.03;49.56;96396.22;5079686;28;20054;-79
2023/02/22 08:04:44;;;;;;;11.57;7.65;;;;;;;13.62;48.43;96405.00;5081032;28;20059;-78
2023/02/22 08:07:12;;;;;;;12.88;8.00;;;;;;;14.21;46.85;96395.31;5081270;28;20048;-79
2023/02/22 08:09:39;;;;;;;8.70;7.68;;;;;;;14.29;46.43;96391.66;5080036;28;20052;-80
2023/02/22 08:12:07;;;;;;;8.18;6.85;;;;;;;14.64;45.92;96394.72;5081310;28;20068;-79
2023/02/22 08:14:34;;;;;;;10.20;6.88;;;;;;;15.77;43.52;96387.69;5082032;28;20052;-79
2023/02/22 08:17:02;;;;;;;10.93;6.50;;;;;;;16.34;41.77;96390.03;5082597;28;20052;-81
2023/02/22 08:19:30;;;;;;;8.60;6.18;;;;;;;16.41;41.82;96385.47;5081300;28;20051;-80
2023/02/22 08:21:59;;;;;;;9.52;6.03;;;;;;;16.77;40.46;96384.56;5082839;28;20457;-80
2023/02/22 08:24:27;;;;;;;11.20;6.47;;;;;;;17.24;39.65;96379.34;5081743;28;20051;-79
2023/02/22 08:26:54;;;;;;;7.88;5.95;;;;;;;17.14;39.78;96380.94;5082256;28;20076;-82
2023/02/22 08:29:22;;;;;;;9.43;6.20;;;;;;;17.48;39.23;96384.63;5083339;28;20053;-83
2023/02/22 08:31:52;;;;;;;7.72;5.95;;;;;;;18.11;38.05;96378.56;5081518;28;20139;-79
2023/02/22 08:34:20;;;;;;;7.35;6.03;;;;;;;18.08;37.89;96376.41;5080408;28;20113;-78
2023/02/22 08:36:48;;;;;;;6.93;5.15;;;;;;;17.78;38.65;96379.19;5080781;28;20056;-79
2023/02/22 08:39:17;;;;;;;6.07;5.13;;;;;;;17.82;38.18;96380.38;5079847;28;20051;-79
2023/02/22 08:41:45;;;;;;;11.35;5.88;;;;;;;18.06;38.14;96370.56;5081038;28;20040;-80
2023/02/22 08:44:13;;;;;;;7.88;5.10;;;;;;;18.32;37.68;96369.19;5081419;28;20506;-79
2023/02/22 08:46:40;;;;;;;6.55;4.78;;;;;;;18.39;37.31;96369.06;5081656;28;20056;-79
2023/02/22 08:49:08;;;;;;;8.60;5.95;;;;;;;18.51;37.11;96369.78;5080755;28;20051;-79
2023/02/22 08:51:36;;;;;;;9.27;5.78;;;;;;;18.59;36.76;96368.59;5081596;28;20052;-79
2023/02/22 08:54:05;;;;;;;8.68;5.78;;;;;;;18.57;36.82;96364.59;5082167;28;20056;-80
2023/02/22 08:56:34;;;;;;;13.95;5.88;;;;;;;18.70;36.69;96366.94;5082384;28;20049;-79
2023/02/22 08:59:02;;;;;;;10.07;5.70;;;;;;;18.90;36.44;96369.94;5082578;28;20044;-79
2023/02/22 09:01:31;;;;;;;10.80;6.75;;;;;;;18.97;36.32;96366.34;5082257;28;20049;-78
2023/02/22 09:04:01;;;;;;;10.57;6.05;;;;;;;18.85;36.45;96363.78;5084169;28;20049;-81
2023/02/22 09:06:29;;;;;;;8.25;5.47;;;;;;;18.69;36.92;96365.31;5083610;28;20054;-76
2023/02/22 09:08:56;;;;;;;11.80;5.20;;;;;;;18.59;39.41;96359.88;5082865;28;20135;-78
2023/02/22 09:11:24;;;;;;;7.28;5.40;;;;;;;18.77;38.15;96359.66;5083556;28;20048;-80
2023/02/22 09:13:53;;;;;;;7.70;5.57;;;;;;;18.93;36.95;96368.66;5083819;28;20049;-80
2023/02/22 09:16:21;;;;;;;9.40;5.50;;;;;;;19.06;36.50;96362.25;5084179;28;20052;-78
2023/02/22 09:18:48;;;;;;;7.85;5.30;;;;;;;19.20;36.29;96366.16;5083618;28;20051;-78
2023/02/22 09:21:16;;;;;;;6.55;4.72;;;;;;;19.29;39.51;96361.28;5083030;28;20052;-79
2023/02/22 09:23:46;;;;;;;8.13;4.15;;;;;;;19.45;39.50;96359.63;5083535;28;20079;-80
2023/02/22 09:26:15;;;;;;;18.15;4.45;;;;;;;19.55;36.96;96365.84;5082930;28;20052;-79
2023/02/22 09:28:42;;;;;;;10.38;4.95;;;;;;;19.48;36.02;96359.13;5082405;28;20426;-79
2023/02/22 09:31:12;;;;;;;6.40;4.53;;;;;;;19.40;36.03;96360.38;5083437;28;20049;-78
2023/02/22 09:33:41;;;;;;;5.85;4.47;;;;;;;19.28;35.30;96360.44;5084954;28;20298;-79
2023/02/22 09:36:09;;;;;;;7.63;4.35;;;;;;;19.18;35.53;96360.31;5104038;22;20049;-77
2023/02/22 09:38:36;;;;;;;6.10;4.22;;;;;;;19.12;35.90;96358.63;5054595;28;20055;-78
2023/02/22 09:41:13;;;;;;;5.75;3.92;;;;;;;19.07;35.85;96353.28;5055447;28;20053;-77
2023/02/22 09:43:49;;;;;;;4.68;3.22;;;;;;;19.13;40.86;96354.94;5055442;28;20060;-77
2023/02/22 09:46:30;;;;;;;8.27;3.47;;;;;;;19.17;35.00;96345.47;5055584;28;20088;-77
2023/02/22 09:49:04;;;;;;;7.25;3.38;;;;;;;19.25;38.94;96341.63;5055017;28;20068;-78
2023/02/22 09:51:40;;;;;;;5.15;3.13;;;;;;;19.27;35.93;96347.47;5055930;28;20053;-77
2023/02/22 09:54:17;;;;;;;6.55;3.35;;;;;;;19.15;34.28;96339.63;5055506;28;20517;-78
2023/02/22 09:56:46;;;;;;;5.85;3.03;;;;;;;19.05;34.51;96334.22;5055671;28;20131;-78
2023/02/22 09:59:21;;;;;;;8.43;3.28;;;;;;;18.98;34.33;96337.03;5054746;28;20412;-78
2023/02/22 10:01:57;;;;;;;6.15;2.75;;;;;;;19.00;34.76;96336.75;5055501;28;20067;-78
2023/02/22 10:04:36;;;;;;;6.93;3.17;;;;;;;19.12;35.84;96334.84;5055399;28;20152;-78
2023/02/22 10:07:17;;;;;;;3.80;2.30;;;;;;;19.29;36.91;96337.47;5055373;28;20055;-79
2023/02/22 10:09:47;;;;;;;7.53;2.75;;;;;;;19.50;37.70;96338.53;5054751;28;20053;-78
2023/02/22 10:12:25;;;;;;;3.10;2.08;;;;;;;19.70;34.67;96330.06;5055704;28;20503;-77
2023/02/22 10:15:26;;;;;;;4.95;2.20;;;;;;;19.84;33.38;96333.16;5068001;28;20068;-78
2023/02/22 10:18:21;;;;;;;4.68;2.20;;;;;;;19.96;32.71;96331.16;5070418;28;20049;-78
2023/02/22 10:20:56;;;;;;;5.05;2.05;;;;;;;20.15;32.78;96337.72;5058992;28;20445;-78
2023/02/22 10:23:30;;;;;;;3.50;2.05;;;;;;;20.22;31.97;96336.75;5055420;28;20525;-78
2023/02/22 10:26:08;;;;;;;4.50;2.03;;;;;;;20.36;33.03;96336.09;5055237;28;20164;-79
2023/02/22 10:28:42;;;;;;;3.80;1.80;;;;;;;20.62;33.34;96335.56;5055104;28;20049;-78
2023/02/22 10:31:21;;;;;;;2.58;1.80;;;;;;;20.78;32.62;96342.59;5054893;28;20059;-78
2023/02/22 10:33:55;;;;;;;2.22;1.30;;;;;;;20.97;30.86;96337.72;5055129;28;20049;-78
2023/02/22 10:36:25;;;;;;;3.45;1.42;;;;;;;21.18;30.93;96341.28;5054751;28;20140;-78
2023/02/22 10:38:58;;;;;;;3.88;1.25;;;;;;;21.51;32.41;96331.41;5055159;28;20494;-78
2023/02/22 10:41:29;;;;;;;4.03;1.63;;;;;;;21.87;30.00;96328.94;5055951;28;20123;-79
2023/02/22 10:43:58;;;;;;;2.83;1.90;;;;;;;22.22;29.84;96336.25;5065435;28;20079;-79
2023/02/22 10:46:28;;;;;;;1.50;1.40;;;;;;;22.38;28.67;96326.44;5068935;28;20139;-79
2023/02/22 10:49:02;;;;;;;3.55;1.33;;;;;;;22.30;28.43;96333.06;5056369;28;20545;-78
2023/02/22 10:51:30;;;;;;;1.55;1.30;;;;;;;22.24;29.62;96328.00;5055301;28;20045;-78
2023/02/22 10:54:19;;;;;;;3.17;1.10;;;;;;;22.43;30.89;96326.44;5055558;28;20067;-78
2023/02/22 10:56:48;;;;;;;4.70;1.20;;;;;;;22.63;28.95;96320.34;5054913;28;20426;-79
2023/02/22 10:59:28;;;;;;;2.60;1.10;;;;;;;22.81;29.38;96319.03;5053832;28;20065;-79
2023/02/22 11:01:57;;;;;;;2.83;1.52;;;;;;;22.88;29.05;96319.53;5054184;28;20056;-79
2023/02/22 11:04:26;;;;;;;5.40;1.40;;;;;;;22.75;29.04;96317.41;5055755;28;20048;-79
2023/02/22 11:07:19;;;;;;;3.33;1.00;;;;;;;22.67;31.26;96309.97;5054420;28;20053;-79
2023/02/22 11:09:52;;;;;;;2.03;1.35;;;;;;;22.58;28.91;96307.84;5053639;28;20509;-80
2023/02/22 11:12:27;;;;;;;3.03;1.35;;;;;;;22.57;27.72;96308.13;5054350;28;20055;-79
2023/02/22 11:14:55;;;;;;;2.92;1.10;;;;;;;22.37;29.51;96306.25;5054380;28;20060;-80
2023/02/22 11:17:30;;;;;;;1.98;1.30;;;;;;;22.26;30.98;96305.44;5054016;28;20140;-78
2023/02/22 11:19:59;;;;;;;3.58;1.42;;;;;;;22.14;31.67;96302.19;5054198;28;20068;-79
2023/02/22 11:22:31;;;;;;;2.83;1.05;;;;;;;22.11;29.93;96308.81;5054090;28;20071;-79
2023/02/22 11:25:02;;;;;;;7.00;1.20;;;;;;;22.15;28.96;96295.78;5054003;28;20302;-79
2023/02/22 11:27:37;;;;;;;2.83;1.20;;;;;;;22.15;28.34;96293.13;5053690;28;20102;-79
2023/02/22 11:30:28;;;;;;;3.78;1.52;;;;;;;22.12;29.01;96286.50;5053391;28;20053;-79
2023/02/22 11:32:59;;;;;;;4.55;1.35;;;;;;;22.35;28.30;96287.09;5053510;28;20057;-79
2023/02/22 11:35:36;;;;;;;1.25;1.15;;;;;;;22.51;31.00;96288.69;5053263;28;20076;-79
2023/02/22 11:38:19;;;;;;;3.08;1.20;;;;;;;22.49;28.00;96277.53;5052799;28;20056;-80
2023/02/22 11:41:06;;;;;;;6.35;1.13;;;;;;;22.24;27.98;96280.16;5053572;28;20188;-79
2023/02/22 11:43:34;;;;;;;4.97;1.33;;;;;;;22.21;30.79;96276.97;5053631;28;20140;-79
2023/02/22 11:46:04;;;;;;;3.65;1.38;;;;;;;22.26;28.96;96276.22;5053551;28;20048;-79
2023/02/22 11:48:37;;;;;;;6.05;1.10;;;;;;;22.18;31.21;96272.16;5052770;28;20053;-79
2023/02/22 11:51:20;;;;;;;2.70;0.85;;;;;;;22.00;29.63;96264.72;5053187;28;20071;-79